Time;durP1;ratioP1;P1;durP2;ratioP2;P2;SDS_P1;SDS_P2;PMS_P1;PMS_P2;Temp;Humidity;BMP_temperature;BMP_pressure;BME280_temperature;BME280_humidity;BME280_pressure;Samples;Min_cycle;Max_cycle;Signal;HPM_P1;HPM_P2
2022/01/24 00:00:01;;;;;;;23.33;11.90;;;-6.20;29.20;;;-5.92;88.10;101076.31;5018724;28;129538;-73
2022/01/24 00:02:34;;;;;;;21.80;11.90;;;-6.20;27.70;;;-6.05;88.46;101081.28;5017217;27;119384;-73
2022/01/24 00:05:02;;;;;;;26.10;13.68;;;-6.30;27.10;;;-6.30;89.88;101086.50;5020322;28;115666;-72
2022/01/24 00:07:32;;;;;;;20.58;11.82;;;-6.40;27.40;;;-6.13;89.86;101091.84;5016479;28;129904;-72
2022/01/24 00:10:05;;;;;;;23.60;11.65;;;-6.30;29.30;;;-6.17;89.84;101094.81;5025843;28;129664;-73
2022/01/24 00:12:44;;;;;;;24.95;11.57;;;-6.30;28.70;;;-6.27;89.73;101094.13;5026246;27;120334;-72
2022/01/24 00:15:21;;;;;;;22.85;12.77;;;-6.40;27.70;;;-6.15;89.33;101092.81;5010792;28;115936;-72
2022/01/24 00:18:03;;;;;;;25.23;12.10;;;-6.40;28.50;;;-6.37;89.40;101093.44;5017572;28;130747;-72
2022/01/24 00:29:05;;;;;;;23.15;10.98;;;-6.40;29.20;;;-6.22;89.48;101081.22;5007638;28;130605;-73
2022/01/24 00:31:34;;;;;;;23.67;12.15;;;-6.40;30.60;;;-6.15;88.95;101082.25;5013863;28;129659;-72
2022/01/24 00:34:02;;;;;;;24.90;12.30;;;-6.40;30.00;;;-6.28;89.45;101089.81;5016875;28;118942;-72
2022/01/24 00:36:31;;;;;;;24.02;12.07;;;-6.40;29.60;;;-6.48;90.70;101091.06;5020763;28;116200;-72
2022/01/24 00:39:03;;;;;;;21.05;11.38;;;-6.50;29.40;;;-6.51;91.09;101095.72;5023198;28;129854;-72
2022/01/24 00:41:39;;;;;;;25.45;12.15;;;-6.50;30.80;;;-6.27;90.51;101094.13;5020642;28;129626;-72
2022/01/24 00:44:30;;;;;;;23.65;12.38;;;-6.50;32.00;;;-6.18;90.23;101103.72;5020010;28;118767;-72
2022/01/24 00:47:02;;;;;;;26.65;13.43;;;-6.50;32.60;;;-6.18;89.97;101097.63;5018269;28;116233;-72
2022/01/24 00:49:49;;;;;;;24.00;12.82;;;-6.40;33.20;;;-6.36;90.26;101090.66;5024130;28;130675;-72
2022/01/24 00:55:07;;;;;;;27.23;13.18;;;-6.50;33.00;;;-6.23;89.69;101094.59;5013629;28;117627;-72
2022/01/24 00:57:36;;;;;;;26.35;13.85;;;-6.50;33.00;;;-6.16;90.31;101085.88;5024585;28;115491;-72
2022/01/24 01:00:06;;;;;;;23.77;12.20;;;-6.40;34.70;;;-6.13;90.03;101089.19;5014969;28;130853;-72
2022/01/24 01:02:35;;;;;;;26.13;13.45;;;-6.40;35.00;;;-6.37;90.92;101093.44;5014649;27;129440;-72
2022/01/24 01:05:20;;;;;;;22.80;12.00;;;-6.40;34.80;;;-6.34;90.90;101098.41;5020602;28;118555;-72
2022/01/24 01:08:01;;;;;;;25.48;13.13;;;-6.40;33.30;;;-6.55;91.55;101107.56;5025168;28;114998;-72
2022/01/24 01:18:49;;;;;;;25.15;12.25;;;-6.60;33.80;;;-6.47;90.13;101111.22;5012081;28;116511;-72
2022/01/24 01:21:21;;;;;;;25.17;11.30;;;-6.60;34.00;;;-6.56;90.62;101099.81;5021376;28;130025;-72
2022/01/24 01:23:55;;;;;;;25.65;13.13;;;-6.60;33.40;;;-6.67;91.20;101087.72;5024779;28;129579;-72
2022/01/24 01:26:32;;;;;;;26.52;13.75;;;-6.60;32.80;;;-6.44;90.67;101092.44;5015334;28;119444;-72
2022/01/24 01:29:04;;;;;;;29.88;14.20;;;-6.60;36.10;;;-6.30;89.69;101088.34;5018003;28;114584;-72
2022/01/24 01:31:42;;;;;;;28.55;13.43;;;-6.50;36.70;;;-6.31;90.07;101095.41;5032504;27;130512;-72
2022/01/24 01:34:29;;;;;;;24.98;13.35;;;-6.50;36.60;;;-6.21;89.63;101097.94;5015353;28;129978;-73
2022/01/24 01:37:23;;;;;;;27.38;13.60;;;-6.50;36.20;;;-6.34;90.50;101095.75;5008451;28;119153;-73
2022/01/24 01:40:20;;;;;;;26.85;13.02;;;-6.50;34.60;;;-6.43;89.74;101084.34;5021130;28;115802;-74
2022/01/24 01:54:11;;;;;;;29.88;13.98;;;-6.60;35.00;;;-6.49;91.00;101073.59;5015949;28;130141;-72
2022/01/24 01:56:43;;;;;;;22.85;11.82;;;-6.60;36.20;;;-6.43;90.81;101075.59;5029502;27;129023;-73
2022/01/24 01:59:14;;;;;;;22.85;13.20;;;-6.60;36.80;;;-6.56;91.31;101074.22;5019474;28;118622;-72
2022/01/24 02:01:42;;;;;;;25.52;13.10;;;-6.70;35.30;;;-6.49;91.02;101076.25;5040196;27;114947;-73
2022/01/24 02:04:12;;;;;;;25.83;13.30;;;-6.60;34.60;;;-6.58;91.21;101076.19;5022231;28;129505;-73
2022/01/24 02:06:40;;;;;;;24.63;12.63;;;-6.60;35.20;;;-6.33;90.45;101073.63;5023791;28;130358;-73
2022/01/24 02:09:10;;;;;;;25.45;13.45;;;-6.60;38.30;;;-6.47;90.48;101076.91;5017752;28;117756;-73
2022/01/24 02:11:40;;;;;;;26.25;12.55;;;-6.60;36.10;;;-6.34;90.16;101069.34;5011974;28;115618;-73
2022/01/24 02:14:12;;;;;;;24.02;13.10;;;-6.60;35.10;;;-6.21;89.60;101074.97;5021349;28;129135;-73
2022/01/24 02:16:48;;;;;;;24.02;12.68;;;-6.60;37.20;;;-6.25;89.90;101076.28;5021701;28;130491;-73
2022/01/24 02:19:29;;;;;;;23.63;13.87;;;-6.50;34.50;;;-6.43;90.30;101073.78;5024789;27;118920;-73
2022/01/24 02:22:17;;;;;;;26.23;14.02;;;-6.60;33.20;;;-6.44;90.65;101066.00;5014239;28;115746;-73
2022/01/24 02:24:54;;;;;;;27.17;13.40;;;-6.70;35.60;;;-6.28;90.41;101060.75;5008822;28;130349;-73
2022/01/24 02:27:27;;;;;;;25.73;12.85;;;-6.60;35.90;;;-6.30;89.65;101068.00;5022982;28;129749;-72
2022/01/24 02:30:11;;;;;;;24.45;13.57;;;-6.60;34.60;;;-6.36;89.41;101073.94;5020270;28;118547;-72
2022/01/24 02:32:40;;;;;;;26.15;13.63;;;-6.60;32.80;;;-6.38;90.19;101073.28;5015492;28;115479;-73
2022/01/24 02:35:10;;;;;;;23.38;13.52;;;-6.70;33.90;;;-6.28;89.64;101076.59;5014904;28;130524;-73
2022/01/24 02:37:40;;;;;;;27.95;13.95;;;-6.60;34.50;;;-6.28;89.33;101081.88;5008583;28;129353;-73
2022/01/24 02:40:11;;;;;;;28.52;14.80;;;-6.60;33.20;;;-6.36;89.76;101066.00;5018313;28;118771;-73
2022/01/24 02:48:31;;;;;;;27.07;16.00;;;-6.70;32.70;;;-6.71;90.21;101067.91;5024407;27;129160;-73
2022/01/24 02:51:25;;;;;;;26.80;14.10;;;-6.70;31.20;;;-6.87;91.60;101071.31;5022858;28;118787;-73
2022/01/24 02:53:57;;;;;;;26.15;14.57;;;-6.80;33.10;;;-6.89;92.22;101063.56;5028594;27;114663;-73
2022/01/24 02:56:25;;;;;;;30.77;15.32;;;-6.80;36.40;;;-7.01;92.56;101072.75;5024920;28;129851;-73
2022/01/24 02:58:53;;;;;;;32.67;16.40;;;-6.80;36.50;;;-6.82;91.40;101068.16;5004542;28;129108;-74
2022/01/24 03:01:22;;;;;;;31.70;15.30;;;-6.80;37.50;;;-6.94;91.22;101076.38;5025621;28;118842;-73
2022/01/24 03:03:50;;;;;;;28.73;15.02;;;-6.90;33.60;;;-7.25;92.21;101070.78;5013497;28;116576;-74
2022/01/24 03:06:19;;;;;;;27.67;14.75;;;-7.00;32.30;;;-7.18;92.45;101069.19;5030536;27;130173;-74
2022/01/24 03:08:47;;;;;;;31.90;15.20;;;-6.80;35.10;;;-7.17;92.42;101068.19;5024526;28;130757;-72
2022/01/24 03:11:17;;;;;;;28.70;14.80;;;-7.00;35.60;;;-7.05;91.91;101074.03;5019228;28;119774;-72
2022/01/24 03:13:46;;;;;;;34.35;16.08;;;-7.00;35.80;;;-6.92;91.38;101073.59;5018690;28;115824;-73
2022/01/24 03:16:15;;;;;;;30.67;15.40;;;-6.90;38.00;;;-6.98;92.02;101074.22;5016160;28;130054;-73
2022/01/24 03:18:43;;;;;;;29.35;13.85;;;-6.90;35.80;;;-6.78;90.86;101080.09;5016788;28;129936;-72
2022/01/24 03:21:12;;;;;;;24.38;13.02;;;-6.90;37.50;;;-6.83;90.28;101069.19;5018287;28;118722;-73
2022/01/24 03:23:41;;;;;;;26.45;14.30;;;-7.00;34.30;;;-6.80;90.42;101063.59;5040226;27;115391;-72
2022/01/24 03:26:10;;;;;;;21.55;11.93;;;-7.00;35.60;;;-6.84;90.73;101062.22;5021156;28;130159;-73
2022/01/24 03:28:40;;;;;;;24.85;12.15;;;-7.00;31.90;;;-6.85;90.31;101060.59;5024364;27;129398;-73
2022/01/24 03:31:08;;;;;;;25.70;13.27;;;-7.00;34.10;;;-6.85;90.68;101060.59;5016646;28;119585;-73
2022/01/24 03:33:38;;;;;;;25.10;13.07;;;-7.00;33.90;;;-7.04;90.61;101059.84;5021485;28;115743;-73
2022/01/24 03:36:07;;;;;;;27.30;13.23;;;-7.00;33.70;;;-6.96;90.64;101067.81;5013477;28;129854;-74
2022/01/24 03:38:36;;;;;;;24.48;13.02;;;-7.00;34.70;;;-7.00;90.88;101071.72;5022657;28;128544;-74
2022/01/24 03:41:07;;;;;;;25.73;12.65;;;-7.10;34.70;;;-6.94;90.87;101070.28;5026858;27;133558;-73
2022/01/24 03:43:36;;;;;;;19.05;10.52;;;-7.00;35.60;;;-7.01;90.96;101074.53;5024225;28;115935;-74
2022/01/24 03:46:24;;;;;;;23.52;12.32;;;-7.10;34.10;;;-6.90;89.95;101072.44;5018086;28;129685;-74
2022/01/24 03:49:09;;;;;;;21.35;11.05;;;-7.10;34.10;;;-7.15;90.61;101078.56;5018021;28;130247;-74
2022/01/24 03:51:38;;;;;;;23.45;11.52;;;-7.10;31.60;;;-7.32;91.17;101082.94;5021075;28;118921;-74
2022/01/24 03:54:06;;;;;;;24.73;11.35;;;-7.20;32.10;;;-7.29;91.34;101083.47;5017632;28;116167;-74
2022/01/24 03:56:35;;;;;;;18.02;10.48;;;-7.20;33.60;;;-7.53;91.87;101092.03;5017521;28;129090;-74
2022/01/24 03:59:08;;;;;;;16.88;10.15;;;-7.30;31.40;;;-7.59;91.72;101088.22;5018202;28;130299;-74
2022/01/24 04:01:38;;;;;;;19.13;9.82;;;-7.40;32.80;;;-7.57;92.63;101095.13;5025292;28;118183;-75
2022/01/24 04:04:06;;;;;;;17.23;9.07;;;-7.30;35.00;;;-7.65;93.66;101093.25;5001085;28;113966;-74
2022/01/24 04:06:37;;;;;;;16.42;10.43;;;-7.30;34.40;;;-7.33;92.32;101102.41;5020413;28;128466;-74
2022/01/24 04:09:07;;;;;;;24.92;11.05;;;-7.30;37.40;;;-7.23;92.10;101090.75;5011219;28;130546;-74
2022/01/24 04:11:38;;;;;;;20.73;9.98;;;-7.20;37.60;;;-7.23;92.25;101093.41;5023589;28;118864;-74
2022/01/24 04:14:25;;;;;;;19.73;10.40;;;-7.20;37.90;;;-7.29;92.34;101094.00;5015584;28;116382;-74
2022/01/24 04:17:07;;;;;;;22.73;10.32;;;-7.20;37.20;;;-7.43;93.10;101091.94;5013326;28;129832;-74
2022/01/24 04:22:27;;;;;;;21.13;10.57;;;-7.20;36.40;;;-7.62;92.32;101093.78;5016245;28;119017;-73
2022/01/24 04:25:00;;;;;;;20.85;10.30;;;-7.40;38.00;;;-7.46;92.84;101097.53;5018948;28;116734;-73
2022/01/24 04:27:30;;;;;;;23.05;10.85;;;-7.40;40.30;;;-7.54;93.04;101090.38;5024483;28;130139;-72
2022/01/24 04:30:00;;;;;;;22.55;11.57;;;-7.50;43.50;;;-7.65;93.67;101094.09;5026313;28;129819;-73
2022/01/24 04:32:30;;;;;;;23.20;10.80;;;-7.40;44.40;;;-7.75;93.53;101092.53;5022806;28;120266;-73
2022/01/24 04:34:59;;;;;;;22.63;12.27;;;-7.50;43.20;;;-7.65;93.87;101094.09;5027256;28;115775;-73
2022/01/24 04:37:29;;;;;;;24.77;10.98;;;-7.50;45.60;;;-7.82;93.90;101102.81;5023187;28;129885;-72
2022/01/24 04:39:58;;;;;;;25.55;13.50;;;-7.60;44.60;;;-7.63;93.76;101094.75;5024348;28;130335;-73
2022/01/24 04:42:35;;;;;;;23.45;12.25;;;-7.50;47.40;;;-7.60;95.09;101102.38;5023988;28;118506;-73
2022/01/24 04:45:26;;;;;;;22.50;11.85;;;-7.40;49.00;;;-7.44;94.35;101106.13;5024874;28;116509;-73
2022/01/24 04:51:02;;;;;;;;;;;-7.30;46.60;;;-7.49;93.81;101108.38;5025370;28;130487;-73
2022/01/24 04:53:50;;;;;;;18.50;10.98;;;-7.30;45.30;;;-7.27;93.34;101110.50;5024406;28;118617;-73
2022/01/24 04:56:18;;;;;;;22.65;11.63;;;-7.20;45.70;;;-7.14;92.68;101118.00;5023226;28;116051;-73
2022/01/24 04:58:46;;;;;;;20.70;10.05;;;-7.20;45.90;;;-7.29;92.50;101109.00;5023511;28;129785;-72
2022/01/24 05:01:15;;;;;;;18.00;9.48;;;-7.20;41.20;;;-7.30;93.20;101107.38;5023784;28;130227;-73
2022/01/24 05:03:45;;;;;;;21.77;9.20;;;-7.30;43.10;;;-7.65;93.50;101114.34;5022452;28;119058;-73
2022/01/24 05:06:14;;;;;;;23.40;10.32;;;-7.40;40.50;;;-7.59;94.07;101114.59;5025200;28;115312;-73
2022/01/24 05:08:43;;;;;;;19.85;9.70;;;-7.40;44.00;;;-7.59;93.97;101109.31;5024456;28;129928;-73
2022/01/24 05:11:17;;;;;;;19.73;9.15;;;-7.40;45.20;;;-7.47;93.32;101116.97;5024574;28;130084;-73
2022/01/24 05:24:51;;;;;;;20.05;10.73;;;-7.50;46.50;;;-7.72;94.18;101119.41;5026184;28;118864;-73
2022/01/24 05:27:22;;;;;;;19.23;10.20;;;-7.40;46.40;;;-7.72;93.86;101129.13;5026410;28;115739;-74
2022/01/24 05:29:51;;;;;;;20.10;10.18;;;-7.50;46.00;;;-7.62;94.11;101125.44;5024192;28;130231;-74
2022/01/24 05:32:21;;;;;;;21.42;10.88;;;-7.40;46.80;;;-7.73;93.67;101117.75;5025452;28;129806;-75
2022/01/24 05:34:50;;;;;;;21.70;10.95;;;-7.50;44.60;;;-7.68;93.55;101126.03;5026287;28;118883;-73
2022/01/24 05:37:19;;;;;;;19.30;10.68;;;-7.50;45.60;;;-7.71;93.49;101120.22;5024614;28;115715;-75
2022/01/24 05:39:48;;;;;;;22.95;11.30;;;-7.60;43.80;;;-7.67;93.23;101122.41;5024197;28;129899;-73
2022/01/24 05:42:21;;;;;;;25.38;11.63;;;-7.60;44.80;;;-7.82;94.05;101135.31;5024350;28;129675;-73
2022/01/24 05:44:50;;;;;;;22.65;11.55;;;-7.60;45.30;;;-7.87;93.83;101131.47;5024193;28;118869;-74
2022/01/24 05:47:18;;;;;;;23.58;10.93;;;-7.60;46.10;;;-7.75;94.19;101124.16;5024142;28;115796;-74
2022/01/24 05:49:47;;;;;;;23.85;11.52;;;-7.70;47.20;;;-7.61;93.69;101127.06;5026550;28;129974;-74
2022/01/24 05:52:17;;;;;;;24.70;11.40;;;-7.50;48.30;;;-7.75;93.68;101117.06;5023922;28;130463;-74
2022/01/24 05:54:46;;;;;;;23.38;11.32;;;-7.60;46.90;;;-7.60;93.83;101118.19;5025989;28;119771;-74
2022/01/24 05:57:14;;;;;;;24.73;13.68;;;-7.50;47.80;;;-7.38;93.22;101123.97;5026537;28;115460;-74
2022/01/24 05:59:44;;;;;;;24.13;12.73;;;-7.40;48.60;;;-7.52;92.59;101132.44;5023751;28;130453;-74
2022/01/24 06:02:16;;;;;;;22.52;11.93;;;-7.50;43.80;;;-7.61;92.38;101129.72;5024939;28;129979;-75
2022/01/24 06:04:46;;;;;;;28.10;13.00;;;-7.50;41.30;;;-7.57;93.29;101137.31;5023745;28;119094;-74
2022/01/24 06:07:16;;;;;;;27.10;12.50;;;-7.50;43.50;;;-7.61;93.37;101127.06;5024006;28;116058;-75
2022/01/24 06:09:45;;;;;;;21.75;11.57;;;-7.50;42.80;;;-7.72;93.68;101135.22;5023445;28;130496;-74
2022/01/24 06:12:13;;;;;;;24.58;13.43;;;-7.50;42.40;;;-7.61;93.27;101132.34;5022965;28;129849;-74
2022/01/24 06:14:42;;;;;;;27.40;13.20;;;-7.40;42.60;;;-7.59;92.99;101130.41;5024752;28;118901;-74
2022/01/24 06:17:11;;;;;;;23.95;11.82;;;-7.40;42.90;;;-7.53;93.58;101125.50;5026383;28;115859;-75
2022/01/24 06:19:40;;;;;;;24.23;12.25;;;-7.40;41.40;;;-7.51;92.47;101115.59;5023281;28;129986;-73
2022/01/24 06:22:11;;;;;;;24.20;11.43;;;-7.40;37.50;;;-7.61;92.36;101111.25;5021911;28;129596;-73
2022/01/24 06:24:41;;;;;;;31.35;14.00;;;-7.60;39.70;;;-7.61;92.76;101121.78;5023006;28;119348;-74
2022/01/24 06:27:12;;;;;;;27.02;13.48;;;-7.50;42.30;;;-7.61;93.06;101118.34;5022232;28;116128;-74
2022/01/24 06:29:40;;;;;;;27.13;12.38;;;-7.50;42.00;;;-7.60;92.56;101112.91;5022503;28;130570;-70
2022/01/24 06:32:12;;;;;;;31.58;14.73;;;-7.60;42.60;;;-7.41;92.92;101116.34;5022544;28;129869;-70
2022/01/24 06:34:40;;;;;;;31.88;14.43;;;-7.50;43.70;;;-7.38;92.91;101115.22;5023615;28;118805;-69
2022/01/24 06:37:09;;;;;;;28.73;14.38;;;-7.40;44.40;;;-7.42;92.29;101112.06;5025687;27;116495;-69
2022/01/24 06:39:40;;;;;;;26.70;13.13;;;-7.50;44.10;;;-7.52;92.25;101109.50;5020967;28;130243;-68
2022/01/24 06:42:13;;;;;;;29.17;14.05;;;-7.50;44.60;;;-7.34;92.53;101108.66;5021877;28;129747;-70
2022/01/24 06:44:45;;;;;;;23.83;12.43;;;-7.40;45.60;;;-7.27;92.79;101113.16;5022997;28;119141;-71
2022/01/24 06:47:16;;;;;;;28.67;13.52;;;-7.30;44.80;;;-7.10;91.96;101113.25;5022677;28;115994;-70
2022/01/24 06:49:45;;;;;;;26.30;12.95;;;-7.20;44.70;;;-7.16;91.86;101108.59;5022336;28;130596;-72
2022/01/24 06:52:15;;;;;;;29.90;12.55;;;-7.20;40.90;;;-7.09;91.09;101106.97;5021748;28;129751;-73
2022/01/24 06:54:45;;;;;;;22.33;11.23;;;-7.20;40.30;;;-7.09;91.02;101099.06;5024527;28;118570;-71
2022/01/24 06:57:17;;;;;;;28.65;12.82;;;-7.30;36.60;;;-7.06;91.37;101096.13;5023072;28;115993;-70
2022/01/24 06:59:47;;;;;;;27.38;13.70;;;-7.30;39.20;;;-7.01;90.93;101101.78;5020466;28;130000;-71
2022/01/24 07:02:16;;;;;;;24.50;12.52;;;-7.20;38.50;;;-7.05;90.84;101106.50;5022872;28;129471;-71
2022/01/24 07:04:45;;;;;;;29.75;13.65;;;-7.10;37.80;;;-6.92;90.43;101105.25;5026038;28;118600;-71
2022/01/24 07:07:15;;;;;;;27.50;12.77;;;-7.10;37.20;;;-6.79;90.07;101104.81;5026125;28;115867;-70
2022/01/24 07:09:44;;;;;;;30.77;13.10;;;-7.10;35.60;;;-6.71;89.94;101096.97;5027332;28;129219;-71
2022/01/24 07:12:14;;;;;;;28.77;14.43;;;-7.00;35.20;;;-6.61;89.45;101094.19;5026174;28;129651;-70
2022/01/24 07:14:44;;;;;;;28.35;14.18;;;-7.00;34.60;;;-6.71;88.96;101094.31;5027462;28;118232;-71
2022/01/24 07:17:27;;;;;;;26.65;13.32;;;-7.10;33.50;;;-6.70;88.94;101093.31;5027511;28;115499;-71
2022/01/24 07:20:00;;;;;;;28.33;13.77;;;-7.20;33.20;;;-6.71;88.86;101096.97;5025493;28;129966;-70
2022/01/24 07:22:29;;;;;;;27.08;14.10;;;-7.10;30.60;;;-6.59;88.60;101100.13;5023757;28;130490;-71
2022/01/24 07:24:58;;;;;;;29.00;13.68;;;-7.00;34.00;;;-6.55;88.46;101088.25;5025309;28;118866;-70
2022/01/24 07:27:31;;;;;;;28.55;13.80;;;-7.00;29.60;;;-6.47;88.32;101098.03;5026426;28;117148;-70
2022/01/24 07:30:01;;;;;;;24.25;12.75;;;-6.90;28.80;;;-6.39;88.41;101092.75;5024848;28;129810;-70
2022/01/24 07:32:30;;;;;;;28.48;13.68;;;-6.90;28.00;;;-6.29;86.79;101095.25;5025145;28;129915;-70
2022/01/24 07:34:59;;;;;;;25.25;13.40;;;-6.90;27.70;;;-6.27;86.10;101094.13;5026130;28;118734;-70
2022/01/24 07:37:28;;;;;;;26.02;12.52;;;-6.90;26.40;;;-6.21;86.30;101098.75;5026567;28;116039;-70
2022/01/24 07:39:57;;;;;;;26.08;13.63;;;-6.90;25.50;;;-6.29;86.42;101096.09;5026788;28;129769;-70
2022/01/24 07:42:51;;;;;;;26.70;12.77;;;-7.00;26.00;;;-6.53;86.86;101104.75;5024686;28;130015;-70
2022/01/24 07:45:18;;;;;;;24.55;13.38;;;-7.00;24.00;;;-6.35;86.42;101096.75;5026148;28;118761;-70
2022/01/24 07:47:47;;;;;;;28.92;13.95;;;-7.00;26.10;;;-6.63;86.87;101098.81;5025599;28;116449;-71
2022/01/24 07:50:17;;;;;;;27.55;13.55;;;-7.30;24.90;;;-6.52;86.39;101091.41;5022850;28;130323;-71
2022/01/24 07:52:46;;;;;;;27.30;13.57;;;-7.20;26.90;;;-6.29;86.43;101096.09;5026011;28;128737;-70
2022/01/24 07:57:59;;;;;;;22.83;12.68;;;-6.80;28.80;;;-5.84;85.21;101100.09;5021853;28;115655;-69
2022/01/24 08:00:27;;;;;;;25.77;13.98;;;-6.70;27.50;;;-5.62;84.69;101093.31;5025446;28;129958;-71
2022/01/24 08:02:57;;;;;;;27.77;13.63;;;-6.60;27.00;;;-5.47;83.98;101093.50;5026140;28;128620;-70
2022/01/24 08:05:27;;;;;;;27.75;13.93;;;-6.50;23.10;;;-5.32;82.74;101090.16;5024313;28;119969;-70
2022/01/24 08:07:55;;;;;;;24.88;13.48;;;-6.50;22.50;;;-5.62;82.46;101103.09;5026525;28;115134;-70
2022/01/24 08:10:24;;;;;;;24.35;12.65;;;-6.50;17.50;;;-5.94;83.82;101099.41;5026169;27;130006;-70
2022/01/24 08:12:54;;;;;;;23.90;12.13;;;-6.60;16.00;;;-6.43;85.37;101105.47;5025807;28;129325;-71
2022/01/24 08:15:24;;;;;;;24.38;13.50;;;-6.60;12.80;;;-6.35;86.08;101102.84;5027161;27;119025;-71
2022/01/24 08:17:54;;;;;;;26.27;13.57;;;-6.70;15.90;;;-5.86;85.28;101095.97;5024677;28;116040;-71
2022/01/24 08:20:23;;;;;;;26.00;13.57;;;-6.50;17.60;;;-5.62;84.55;101093.31;5023836;28;129758;-71
2022/01/24 08:22:52;;;;;;;27.35;13.32;;;-6.40;17.20;;;-5.53;83.88;101099.44;5024647;28;130587;-71
2022/01/24 08:25:23;;;;;;;25.33;13.10;;;-6.40;17.00;;;-5.54;82.99;101095.13;5024452;28;118855;-71
2022/01/24 08:27:51;;;;;;;26.40;13.73;;;-6.30;12.90;;;-5.81;83.86;101093.66;5023045;28;116925;-71
2022/01/24 08:30:24;;;;;;;27.38;14.05;;;-6.40;11.90;;;-6.11;83.91;101103.88;5008111;28;129471;-71
2022/01/24 08:32:53;;;;;;;23.65;12.70;;;-6.50;11.70;;;-6.35;85.65;101097.56;5023382;28;130207;-71
2022/01/24 08:35:23;;;;;;;27.20;13.57;;;-6.70;12.10;;;-6.49;85.96;101106.13;5025752;28;118256;-71
2022/01/24 08:37:52;;;;;;;28.45;14.23;;;-6.80;14.50;;;-6.40;86.47;101096.41;5023586;28;115671;-71
2022/01/24 08:40:25;;;;;;;26.00;14.02;;;-6.70;16.30;;;-6.18;85.84;101103.72;5003445;28;130025;-80
2022/01/24 08:42:59;;;;;;;29.85;14.05;;;-6.60;15.50;;;-6.05;85.19;101099.78;5002692;28;130224;-69
2022/01/24 08:45:45;;;;;;;28.65;14.45;;;-6.60;15.10;;;-5.78;83.34;101098.59;5003805;28;118825;-68
2022/01/24 08:48:16;;;;;;;29.92;13.57;;;-6.40;12.40;;;-5.75;83.96;101097.44;5003249;28;115588;-71
2022/01/24 08:50:45;;;;;;;27.35;13.48;;;-6.40;10.70;;;-5.60;82.43;101090.50;5003188;28;129933;-70
2022/01/24 08:53:14;;;;;;;27.52;14.05;;;-6.40;9.30;;;-5.83;82.87;101090.34;5003641;28;130440;-70
2022/01/24 08:55:42;;;;;;;25.15;13.70;;;-6.40;7.00;;;-5.76;82.64;101091.34;5006654;28;119745;-70
2022/01/24 08:58:14;;;;;;;28.63;15.27;;;-6.60;8.00;;;-5.86;82.34;101091.50;5007372;28;116453;-71
2022/01/24 09:00:47;;;;;;;30.45;14.75;;;-6.70;10.30;;;-5.87;82.02;101100.44;5003771;28;129901;-71
2022/01/24 09:03:17;;;;;;;32.08;14.52;;;-6.70;11.40;;;-5.37;82.36;101095.13;5005808;28;129953;-69
2022/01/24 09:05:48;;;;;;;29.38;14.20;;;-6.40;13.90;;;-5.23;81.00;101094.44;5020792;28;119549;-68
2022/01/24 09:08:17;;;;;;;27.38;13.90;;;-6.20;10.00;;;-5.60;82.01;101096.63;5004999;28;115056;-69
2022/01/24 09:10:47;;;;;;;31.15;15.18;;;-6.30;7.20;;;-5.43;81.06;101091.31;5003327;28;129822;-70
2022/01/24 09:13:16;;;;;;;27.00;13.93;;;-6.30;6.90;;;-5.53;82.18;101096.81;5004587;28;129461;-67
2022/01/24 09:15:48;;;;;;;30.20;14.20;;;-6.50;8.30;;;-5.56;82.38;101091.00;5002867;28;118606;-68
2022/01/24 09:18:19;;;;;;;27.25;14.15;;;-6.30;8.50;;;-5.56;81.96;101091.00;5004392;28;114927;-68
2022/01/24 09:20:50;;;;;;;26.45;13.23;;;-6.20;5.50;;;-5.30;81.47;101093.44;5005650;28;130129;-68
2022/01/24 09:23:19;;;;;;;27.98;13.70;;;-6.20;6.70;;;-5.11;81.11;101090.44;5003526;28;129699;-69
2022/01/24 09:25:48;;;;;;;30.35;14.80;;;-6.00;7.20;;;-4.97;79.97;101085.44;5003220;28;118895;-69
2022/01/24 09:28:16;;;;;;;23.85;13.60;;;-5.90;3.40;;;-5.10;79.61;101092.09;5004843;28;115898;-71
2022/01/24 09:30:47;;;;;;;26.65;14.25;;;-5.90;1.30;;;-4.98;79.92;101100.50;5003857;28;129775;-67
2022/01/24 09:33:16;;;;;;;23.67;12.85;;;-6.00;3.90;;;-4.91;78.15;101095.34;5002885;28;130010;-67
2022/01/24 09:35:45;;;;;;;25.33;13.13;;;-6.00;2.50;;;-5.09;80.11;101085.81;5004099;28;119025;-67
2022/01/24 09:38:15;;;;;;;28.30;13.70;;;-6.00;1.80;;;-5.16;80.22;101090.09;5002489;28;116104;-68
2022/01/24 09:40:46;;;;;;;25.50;13.55;;;-6.00;1.20;;;-4.75;78.98;101087.34;5019911;28;131458;-68
2022/01/24 09:43:14;;;;;;;24.35;13.20;;;-5.90;2.10;;;-4.60;78.15;101089.28;5022575;28;129830;-69
2022/01/24 09:45:47;;;;;;;24.52;12.98;;;-5.90;1.60;;;-4.25;77.55;101095.06;5023081;28;119932;-76
2022/01/24 09:48:18;;;;;;;26.13;13.38;;;-5.70;1.80;;;-4.09;76.33;101088.84;5023005;28;116615;-68
2022/01/24 09:50:50;;;;;;;26.90;13.77;;;-5.50;1.00;;;-4.20;75.29;101084.75;5023624;28;129880;-69
2022/01/24 09:53:20;;;;;;;23.83;12.73;;;-5.60;1.00;;;-4.28;75.78;101090.13;5024298;28;128749;-69
2022/01/24 09:55:50;;;;;;;24.58;13.18;;;-5.70;1.00;;;-4.20;76.27;101082.09;5022698;28;118866;-68
2022/01/24 09:58:22;;;;;;;23.00;12.52;;;-5.70;1.00;;;-4.25;75.80;101076.50;5025683;28;116469;-69
2022/01/24 10:00:55;;;;;;;23.52;12.73;;;-5.50;1.00;;;-4.67;77.59;101070.59;5022024;28;129957;-68
2022/01/24 10:03:25;;;;;;;20.27;11.88;;;-5.80;1.00;;;-4.10;75.50;101069.44;5024679;28;129617;-69
2022/01/24 10:05:56;;;;;;;24.05;12.38;;;-5.50;1.00;;;-3.85;74.04;101064.78;5022763;28;118888;-68
2022/01/24 10:08:27;;;;;;;24.70;13.15;;;-5.50;1.00;;;-3.92;73.12;101057.72;5021919;28;116570;-69
2022/01/24 10:10:58;;;;;;;24.33;12.15;;;-5.40;1.00;;;-3.88;73.30;101059.84;5021315;28;130002;-68
2022/01/24 10:16:32;;;;;;;26.58;12.80;;;-5.30;1.00;;;-4.07;74.91;101055.81;5023807;28;118636;-70
2022/01/24 10:19:22;;;;;;;24.30;12.80;;;-5.60;1.00;;;-3.89;74.70;101055.53;5021532;28;115493;-69
2022/01/24 10:21:53;;;;;;;24.50;13.45;;;-5.40;1.00;;;-3.97;75.23;101048.47;5022406;28;130202;-69
2022/01/24 10:24:38;;;;;;;24.85;13.57;;;-5.40;1.00;;;-3.77;74.49;101050.63;5023131;28;128520;-69
2022/01/24 10:27:15;;;;;;;24.25;12.73;;;-5.40;1.00;;;-4.01;73.43;101041.84;5024011;28;118921;-68
2022/01/24 10:29:50;;;;;;;24.15;12.43;;;-5.60;1.00;;;-4.21;74.50;101043.31;5024123;28;115160;-67
2022/01/24 10:32:44;;;;;;;23.02;12.23;;;-5.50;1.00;;;-4.16;73.75;101040.97;5021539;28;130085;-68
2022/01/24 10:35:37;;;;;;;23.50;12.45;;;-5.50;1.00;;;-4.05;73.55;101031.78;5011166;28;129979;-68
2022/01/24 10:38:26;;;;;;;21.75;11.75;;;-5.40;1.00;;;-4.03;74.47;101035.91;5025981;28;118778;-68
2022/01/24 10:41:09;;;;;;;20.33;11.88;;;-5.30;1.00;;;-4.56;75.91;101035.75;5010266;28;114694;-68
2022/01/24 10:43:42;;;;;;;20.05;11.85;;;-5.60;1.00;;;-4.53;78.12;101034.59;5027147;28;129934;-68
2022/01/24 10:46:11;;;;;;;24.80;12.38;;;-5.60;1.00;;;-4.22;78.33;101025.78;5024529;28;129574;-68
2022/01/24 10:48:47;;;;;;;31.63;14.68;;;-5.60;2.50;;;-3.85;76.06;101024.16;5024854;28;118823;-68
2022/01/24 10:51:20;;;;;;;23.88;13.27;;;-5.40;2.60;;;-4.10;74.19;101013.75;5024911;28;115659;-69
2022/01/24 10:53:52;;;;;;;25.08;14.07;;;-5.90;1.00;;;-4.29;74.94;101016.88;5026519;28;129720;-68
2022/01/24 10:56:33;;;;;;;27.38;13.65;;;-6.00;1.00;;;-3.93;76.05;101005.66;5027330;28;130265;-68
2022/01/24 10:59:16;;;;;;;24.83;13.63;;;-5.60;3.60;;;-4.38;75.73;101001.03;5025389;28;118644;-68
2022/01/24 11:01:50;;;;;;;23.52;12.88;;;-5.70;1.00;;;-4.26;75.48;101000.63;5026088;28;115944;-68
2022/01/24 11:04:20;;;;;;;26.60;13.55;;;-5.70;1.00;;;-3.92;75.36;100999.38;5026295;28;128893;-68
2022/01/24 11:06:54;;;;;;;25.33;14.93;;;-5.60;1.00;;;-4.05;74.42;101000.78;5027243;28;129611;-67
2022/01/24 11:09:25;;;;;;;22.92;13.40;;;-5.80;1.00;;;-4.10;73.59;100995.19;5024673;28;118871;-68
2022/01/24 11:11:56;;;;;;;26.77;14.25;;;-5.90;1.00;;;-3.93;73.74;100993.22;5026675;28;115735;-68
2022/01/24 11:14:26;;;;;;;27.52;15.15;;;-5.70;1.00;;;-3.90;74.67;100981.44;5025774;28;129462;-68